sensor_id;sensor_type;location;lat;lon;timestamp;pressure;altitude;pressure_sealevel;temperature;humidity
24336;BME280;33098;52.400;16.880;2023-02-26T00:01:47;99937.95;;;2.37;85.73
24336;BME280;33098;52.400;16.880;2023-02-26T00:04:15;99935.52;;;2.37;85.74
24336;BME280;33098;52.400;16.880;2023-02-26T00:06:42;99937.95;;;2.37;85.72
24336;BME280;33098;52.400;16.880;2023-02-26T00:09:21;99938.52;;;2.32;85.46
24336;BME280;33098;52.400;16.880;2023-02-26T00:11:50;99943.13;;;2.32;85.55
24336;BME280;33098;52.400;16.880;2023-02-26T00:14:18;99949.79;;;2.31;85.44
24336;BME280;33098;52.400;16.880;2023-02-26T00:19:33;99958.73;;;2.25;85.34
24336;BME280;33098;52.400;16.880;2023-02-26T00:22:01;99965.81;;;2.20;85.27
24336;BME280;33098;52.400;16.880;2023-02-26T00:24:28;99968.09;;;2.19;85.34
24336;BME280;33098;52.400;16.880;2023-02-26T00:26:58;99974.17;;;2.20;85.40
24336;BME280;33098;52.400;16.880;2023-02-26T00:29:26;99975.81;;;2.19;85.17
24336;BME280;33098;52.400;16.880;2023-02-26T00:31:54;99975.11;;;2.19;85.28
24336;BME280;33098;52.400;16.880;2023-02-26T00:34:22;99977.05;;;2.19;85.27
24336;BME280;33098;52.400;16.880;2023-02-26T00:42:13;99981.92;;;2.17;85.34
24336;BME280;33098;52.400;16.880;2023-02-26T00:44:50;99985.06;;;2.12;85.14
24336;BME280;33098;52.400;16.880;2023-02-26T00:47:38;99992.80;;;2.16;85.20
24336;BME280;33098;52.400;16.880;2023-02-26T00:50:16;99992.27;;;2.26;85.56
24336;BME280;33098;52.400;16.880;2023-02-26T00:53:23;99998.61;;;2.35;85.42
24336;BME280;33098;52.400;16.880;2023-02-26T00:55:53;99999.89;;;2.31;84.78
24336;BME280;33098;52.400;16.880;2023-02-26T00:58:30;100001.70;;;2.27;85.00
24336;BME280;33098;52.400;16.880;2023-02-26T01:00:58;100004.61;;;2.31;84.94
24336;BME280;33098;52.400;16.880;2023-02-26T01:03:26;100006.19;;;2.35;85.00
24336;BME280;33098;52.400;16.880;2023-02-26T01:05:54;100005.45;;;2.39;84.97
24336;BME280;33098;52.400;16.880;2023-02-26T01:08:38;100010.50;;;2.42;85.02
24336;BME280;33098;52.400;16.880;2023-02-26T01:11:09;100010.65;;;2.43;85.02
24336;BME280;33098;52.400;16.880;2023-02-26T01:13:38;100008.13;;;2.45;84.80
24336;BME280;33098;52.400;16.880;2023-02-26T01:16:10;100010.54;;;2.39;84.56
24336;BME280;33098;52.400;16.880;2023-02-26T01:18:49;100006.02;;;2.31;84.31
24336;BME280;33098;52.400;16.880;2023-02-26T01:21:28;100012.88;;;2.27;84.20
24336;BME280;33098;52.400;16.880;2023-02-26T01:23:58;100015.07;;;2.25;84.26
24336;BME280;33098;52.400;16.880;2023-02-26T01:26:31;100013.70;;;2.25;84.24
24336;BME280;33098;52.400;16.880;2023-02-26T01:28:59;100013.79;;;2.23;84.33
24336;BME280;33098;52.400;16.880;2023-02-26T01:34:47;100021.23;;;2.10;84.10
24336;BME280;33098;52.400;16.880;2023-02-26T01:37:47;100025.21;;;2.08;83.97
24336;BME280;33098;52.400;16.880;2023-02-26T01:43:33;100036.04;;;2.05;84.17
24336;BME280;33098;52.400;16.880;2023-02-26T01:46:15;100042.22;;;2.04;84.33
24336;BME280;33098;52.400;16.880;2023-02-26T01:48:57;100044.88;;;2.03;84.01
24336;BME280;33098;52.400;16.880;2023-02-26T01:51:57;100048.42;;;1.95;83.92
24336;BME280;33098;52.400;16.880;2023-02-26T01:54:29;100054.67;;;1.96;84.10
24336;BME280;33098;52.400;16.880;2023-02-26T01:59:33;100060.42;;;1.93;84.11
24336;BME280;33098;52.400;16.880;2023-02-26T02:02:06;100059.67;;;1.87;83.79
24336;BME280;33098;52.400;16.880;2023-02-26T02:04:35;100064.00;;;1.80;83.86
24336;BME280;33098;52.400;16.880;2023-02-26T02:07:04;100066.73;;;1.82;84.15
24336;BME280;33098;52.400;16.880;2023-02-26T02:09:32;100069.91;;;1.85;84.17
24336;BME280;33098;52.400;16.880;2023-02-26T02:16:02;100077.02;;;1.83;84.07
24336;BME280;33098;52.400;16.880;2023-02-26T02:18:23;100081.89;;;1.80;84.03
24336;BME280;33098;52.400;16.880;2023-02-26T02:32:29;100104.20;;;1.78;83.98
24336;BME280;33098;52.400;16.880;2023-02-26T02:37:34;100108.98;;;1.80;84.14
24336;BME280;33098;52.400;16.880;2023-02-26T02:40:11;100111.64;;;1.80;83.90
24336;BME280;33098;52.400;16.880;2023-02-26T02:42:45;100110.13;;;1.79;83.96
24336;BME280;33098;52.400;16.880;2023-02-26T02:48:21;100116.11;;;1.77;83.90
24336;BME280;33098;52.400;16.880;2023-02-26T02:50:57;100124.25;;;1.76;83.77
24336;BME280;33098;52.400;16.880;2023-02-26T02:53:45;100128.30;;;1.72;83.80
24336;BME280;33098;52.400;16.880;2023-02-26T03:01:44;100149.73;;;1.62;83.60
24336;BME280;33098;52.400;16.880;2023-02-26T03:04:13;100150.00;;;1.63;83.68
24336;BME280;33098;52.400;16.880;2023-02-26T03:06:41;100156.45;;;1.60;83.75
24336;BME280;33098;52.400;16.880;2023-02-26T03:09:11;100159.08;;;1.53;83.41
24336;BME280;33098;52.400;16.880;2023-02-26T03:11:41;100162.13;;;1.55;83.66
24336;BME280;33098;52.400;16.880;2023-02-26T03:14:10;100160.20;;;1.55;83.55
24336;BME280;33098;52.400;16.880;2023-02-26T03:20:08;100178.98;;;1.53;83.67
24336;BME280;33098;52.400;16.880;2023-02-26T03:25:28;100176.79;;;1.52;83.75
24336;BME280;33098;52.400;16.880;2023-02-26T03:30:41;100189.80;;;1.51;83.43
24336;BME280;33098;52.400;16.880;2023-02-26T03:33:19;100193.55;;;1.44;83.54
24336;BME280;33098;52.400;16.880;2023-02-26T03:35:55;100196.83;;;1.38;83.35
24336;BME280;33098;52.400;16.880;2023-02-26T03:38:31;100203.76;;;1.35;83.49
24336;BME280;33098;52.400;16.880;2023-02-26T03:41:23;100207.51;;;1.33;83.63
24336;BME280;33098;52.400;16.880;2023-02-26T03:44:00;100208.77;;;1.32;83.61
24336;BME280;33098;52.400;16.880;2023-02-26T03:46:51;100213.39;;;1.35;83.95
24336;BME280;33098;52.400;16.880;2023-02-26T03:49:28;100221.39;;;1.36;83.94
24336;BME280;33098;52.400;16.880;2023-02-26T03:52:00;100227.97;;;1.41;84.08
24336;BME280;33098;52.400;16.880;2023-02-26T03:55:14;100229.41;;;1.44;83.83
24336;BME280;33098;52.400;16.880;2023-02-26T03:58:04;100235.20;;;1.40;83.78
24336;BME280;33098;52.400;16.880;2023-02-26T04:00:55;100240.40;;;1.37;83.79
24336;BME280;33098;52.400;16.880;2023-02-26T04:03:28;100243.17;;;1.34;83.62
24336;BME280;33098;52.400;16.880;2023-02-26T04:05:58;100248.42;;;1.33;83.83
24336;BME280;33098;52.400;16.880;2023-02-26T04:08:33;100253.96;;;1.35;83.73
24336;BME280;33098;52.400;16.880;2023-02-26T04:11:10;100254.65;;;1.35;83.99
24336;BME280;33098;52.400;16.880;2023-02-26T04:13:39;100259.41;;;1.38;83.99
24336;BME280;33098;52.400;16.880;2023-02-26T04:16:06;100263.05;;;1.39;83.96
24336;BME280;33098;52.400;16.880;2023-02-26T04:18:33;100265.73;;;1.37;84.00
24336;BME280;33098;52.400;16.880;2023-02-26T04:21:00;100261.73;;;1.33;83.93
24336;BME280;33098;52.400;16.880;2023-02-26T04:23:28;100271.30;;;1.30;83.88
24336;BME280;33098;52.400;16.880;2023-02-26T04:26:00;100274.85;;;1.28;83.76
24336;BME280;33098;52.400;16.880;2023-02-26T04:28:28;100276.77;;;1.29;83.91
24336;BME280;33098;52.400;16.880;2023-02-26T04:30:56;100280.27;;;1.25;83.63
24336;BME280;33098;52.400;16.880;2023-02-26T04:33:23;100281.56;;;1.19;83.68
24336;BME280;33098;52.400;16.880;2023-02-26T04:35:52;100283.99;;;1.15;83.76
24336;BME280;33098;52.400;16.880;2023-02-26T04:38:20;100288.19;;;1.10;83.76
24336;BME280;33098;52.400;16.880;2023-02-26T04:40:51;100288.61;;;1.09;83.95
24336;BME280;33098;52.400;16.880;2023-02-26T04:43:18;100291.96;;;1.08;84.01
24336;BME280;33098;52.400;16.880;2023-02-26T04:45:53;100292.09;;;1.09;83.89
24336;BME280;33098;52.400;16.880;2023-02-26T04:48:20;100294.39;;;1.12;84.20
24336;BME280;33098;52.400;16.880;2023-02-26T04:50:47;100298.42;;;1.17;84.31
24336;BME280;33098;52.400;16.880;2023-02-26T04:53:16;100301.10;;;1.20;84.36
24336;BME280;33098;52.400;16.880;2023-02-26T04:55:46;100308.28;;;1.28;84.49
24336;BME280;33098;52.400;16.880;2023-02-26T04:58:15;100309.42;;;1.34;84.54
24336;BME280;33098;52.400;16.880;2023-02-26T05:00:42;100312.95;;;1.37;84.65
24336;BME280;33098;52.400;16.880;2023-02-26T05:03:14;100316.46;;;1.41;84.50
24336;BME280;33098;52.400;16.880;2023-02-26T05:05:42;100316.14;;;1.44;84.58
24336;BME280;33098;52.400;16.880;2023-02-26T05:08:12;100321.26;;;1.52;84.77
24336;BME280;33098;52.400;16.880;2023-02-26T05:10:40;100321.14;;;1.59;84.76
24336;BME280;33098;52.400;16.880;2023-02-26T05:13:07;100326.09;;;1.66;84.71
24336;BME280;33098;52.400;16.880;2023-02-26T05:15:33;100330.73;;;1.71;84.61
24336;BME280;33098;52.400;16.880;2023-02-26T05:18:04;100333.80;;;1.73;84.58
24336;BME280;33098;52.400;16.880;2023-02-26T05:20:35;100343.86;;;1.75;84.40
24336;BME280;33098;52.400;16.880;2023-02-26T05:23:03;100342.20;;;1.77;84.41
24336;BME280;33098;52.400;16.880;2023-02-26T05:25:31;100344.55;;;1.79;84.29
24336;BME280;33098;52.400;16.880;2023-02-26T05:27:58;100348.36;;;1.80;84.14
24336;BME280;33098;52.400;16.880;2023-02-26T05:30:29;100350.02;;;1.83;84.25
24336;BME280;33098;52.400;16.880;2023-02-26T05:32:57;100353.19;;;1.86;84.15
24336;BME280;33098;52.400;16.880;2023-02-26T05:35:25;100356.52;;;1.86;83.80
24336;BME280;33098;52.400;16.880;2023-02-26T05:37:54;100358.95;;;1.87;84.02
24336;BME280;33098;52.400;16.880;2023-02-26T05:40:25;100364.30;;;1.89;83.93
24336;BME280;33098;52.400;16.880;2023-02-26T05:42:55;100367.27;;;1.92;83.97
24336;BME280;33098;52.400;16.880;2023-02-26T05:45:25;100373.27;;;1.95;84.00
24336;BME280;33098;52.400;16.880;2023-02-26T05:47:54;100377.71;;;1.98;84.05
24336;BME280;33098;52.400;16.880;2023-02-26T05:50:25;100385.66;;;2.00;84.05
24336;BME280;33098;52.400;16.880;2023-02-26T05:52:52;100388.10;;;2.01;83.85
24336;BME280;33098;52.400;16.880;2023-02-26T05:55:19;100391.42;;;2.01;83.97
24336;BME280;33098;52.400;16.880;2023-02-26T05:57:46;100401.69;;;2.02;84.14
24336;BME280;33098;52.400;16.880;2023-02-26T06:00:16;100401.48;;;2.02;84.02
24336;BME280;33098;52.400;16.880;2023-02-26T06:02:42;100405.95;;;2.04;83.98
24336;BME280;33098;52.400;16.880;2023-02-26T06:05:10;100410.64;;;2.05;84.01
24336;BME280;33098;52.400;16.880;2023-02-26T06:07:37;100416.66;;;2.08;84.02
24336;BME280;33098;52.400;16.880;2023-02-26T06:10:06;100418.81;;;2.10;83.97
24336;BME280;33098;52.400;16.880;2023-02-26T06:12:34;100419.65;;;2.16;84.30
24336;BME280;33098;52.400;16.880;2023-02-26T06:15:01;100426.98;;;2.20;84.23
24336;BME280;33098;52.400;16.880;2023-02-26T06:17:45;100426.45;;;2.20;84.08
24336;BME280;33098;52.400;16.880;2023-02-26T06:20:12;100427.66;;;2.21;84.13
24336;BME280;33098;52.400;16.880;2023-02-26T06:22:41;100439.10;;;2.24;84.16
24336;BME280;33098;52.400;16.880;2023-02-26T06:25:08;100441.30;;;2.29;84.45
24336;BME280;33098;52.400;16.880;2023-02-26T06:27:39;100446.67;;;2.34;84.27
24336;BME280;33098;52.400;16.880;2023-02-26T06:30:07;100447.77;;;2.33;84.14
24336;BME280;33098;52.400;16.880;2023-02-26T06:32:37;100452.17;;;2.36;84.34
24336;BME280;33098;52.400;16.880;2023-02-26T06:35:05;100455.02;;;2.39;84.26
24336;BME280;33098;52.400;16.880;2023-02-26T06:37:35;100457.45;;;2.44;84.27
24336;BME280;33098;52.400;16.880;2023-02-26T06:40:09;100464.42;;;2.49;84.26
24336;BME280;33098;52.400;16.880;2023-02-26T06:42:37;100465.73;;;2.55;84.48
24336;BME280;33098;52.400;16.880;2023-02-26T06:45:05;100467.02;;;2.54;84.20
24336;BME280;33098;52.400;16.880;2023-02-26T06:47:34;100469.34;;;2.52;84.15
24336;BME280;33098;52.400;16.880;2023-02-26T06:50:01;100475.34;;;2.56;84.19
24336;BME280;33098;52.400;16.880;2023-02-26T06:52:32;100477.76;;;2.56;84.41
24336;BME280;33098;52.400;16.880;2023-02-26T06:55:00;100481.97;;;2.56;84.36
24336;BME280;33098;52.400;16.880;2023-02-26T06:57:27;100487.58;;;2.56;84.21
24336;BME280;33098;52.400;16.880;2023-02-26T06:59:54;100492.87;;;2.55;84.42
24336;BME280;33098;52.400;16.880;2023-02-26T07:02:21;100495.23;;;2.61;84.52
24336;BME280;33098;52.400;16.880;2023-02-26T07:04:49;100496.44;;;2.66;84.61
24336;BME280;33098;52.400;16.880;2023-02-26T07:07:16;100503.45;;;2.69;84.47
24336;BME280;33098;52.400;16.880;2023-02-26T07:09:43;100510.15;;;2.72;84.58
24336;BME280;33098;52.400;16.880;2023-02-26T07:12:13;100512.35;;;2.74;84.62
24336;BME280;33098;52.400;16.880;2023-02-26T07:14:40;100519.11;;;2.76;84.66
24336;BME280;33098;52.400;16.880;2023-02-26T07:17:09;100520.42;;;2.74;84.52
24336;BME280;33098;52.400;16.880;2023-02-26T07:19:36;100521.54;;;2.76;84.72
24336;BME280;33098;52.400;16.880;2023-02-26T07:22:03;100524.95;;;2.74;84.61
24336;BME280;33098;52.400;16.880;2023-02-26T07:24:30;100528.95;;;2.71;84.70
24336;BME280;33098;52.400;16.880;2023-02-26T07:26:57;100537.23;;;2.70;84.86
24336;BME280;33098;52.400;16.880;2023-02-26T07:29:25;100539.52;;;2.74;85.11
24336;BME280;33098;52.400;16.880;2023-02-26T07:31:52;100543.95;;;2.77;84.94
24336;BME280;33098;52.400;16.880;2023-02-26T07:34:19;100551.66;;;2.77;85.04
24336;BME280;33098;52.400;16.880;2023-02-26T07:36:49;100550.63;;;2.81;85.27
24336;BME280;33098;52.400;16.880;2023-02-26T07:39:16;100554.21;;;2.87;85.26
24336;BME280;33098;52.400;16.880;2023-02-26T07:41:43;100558.77;;;2.94;85.56
24336;BME280;33098;52.400;16.880;2023-02-26T07:44:14;100558.75;;;2.95;85.16
24336;BME280;33098;52.400;16.880;2023-02-26T07:46:42;100560.09;;;2.97;85.18
24336;BME280;33098;52.400;16.880;2023-02-26T07:49:10;100560.37;;;2.98;85.26
24336;BME280;33098;52.400;16.880;2023-02-26T07:51:37;100563.46;;;2.92;84.86
24336;BME280;33098;52.400;16.880;2023-02-26T07:54:07;100570.34;;;2.91;84.93
24336;BME280;33098;52.400;16.880;2023-02-26T07:56:35;100572.09;;;2.95;85.05
24336;BME280;33098;52.400;16.880;2023-02-26T07:59:02;100575.42;;;2.94;84.90
24336;BME280;33098;52.400;16.880;2023-02-26T08:01:29;100587.83;;;2.99;85.13
24336;BME280;33098;52.400;16.880;2023-02-26T08:03:57;100589.79;;;3.06;85.17
24336;BME280;33098;52.400;16.880;2023-02-26T08:06:25;100594.27;;;3.08;85.04
24336;BME280;33098;52.400;16.880;2023-02-26T08:08:52;100596.42;;;3.11;85.04
24336;BME280;33098;52.400;16.880;2023-02-26T08:11:22;100603.02;;;3.20;85.14
24336;BME280;33098;52.400;16.880;2023-02-26T08:13:49;100611.95;;;3.25;85.17
24336;BME280;33098;52.400;16.880;2023-02-26T08:16:16;100618.66;;;3.32;85.36
24336;BME280;33098;52.400;16.880;2023-02-26T08:18:43;100618.02;;;3.34;84.90
24336;BME280;33098;52.400;16.880;2023-02-26T08:21:10;100628.83;;;3.36;84.87
24336;BME280;33098;52.400;16.880;2023-02-26T08:23:37;100631.52;;;3.42;84.92
24336;BME280;33098;52.400;16.880;2023-02-26T08:26:09;100634.92;;;3.49;84.78
24336;BME280;33098;52.400;16.880;2023-02-26T08:28:37;100637.70;;;3.53;84.55
24336;BME280;33098;52.400;16.880;2023-02-26T08:31:04;100643.73;;;3.59;84.62
24336;BME280;33098;52.400;16.880;2023-02-26T08:33:32;100648.70;;;3.65;84.30
24336;BME280;33098;52.400;16.880;2023-02-26T08:35:59;100652.35;;;3.70;84.11
24336;BME280;33098;52.400;16.880;2023-02-26T08:38:28;100657.18;;;3.71;84.08
24336;BME280;33098;52.400;16.880;2023-02-26T08:40:55;100663.14;;;3.72;83.74
24336;BME280;33098;52.400;16.880;2023-02-26T08:43:23;100666.63;;;3.72;83.57
24336;BME280;33098;52.400;16.880;2023-02-26T08:45:54;100668.40;;;3.76;83.54
24336;BME280;33098;52.400;16.880;2023-02-26T08:48:22;100675.67;;;3.78;83.23
24336;BME280;33098;52.400;16.880;2023-02-26T08:50:52;100677.48;;;3.73;82.84
24336;BME280;33098;52.400;16.880;2023-02-26T08:53:20;100680.19;;;3.76;82.99
24336;BME280;33098;52.400;16.880;2023-02-26T08:55:49;100687.78;;;3.82;83.02
24336;BME280;33098;52.400;16.880;2023-02-26T08:58:17;100692.17;;;3.90;82.82
24336;BME280;33098;52.400;16.880;2023-02-26T09:00:46;100695.93;;;3.88;82.33
24336;BME280;33098;52.400;16.880;2023-02-26T09:03:14;100703.56;;;3.86;82.18
24336;BME280;33098;52.400;16.880;2023-02-26T09:05:40;100704.36;;;3.84;82.07
24336;BME280;33098;52.400;16.880;2023-02-26T09:08:08;100713.56;;;3.79;81.73
24336;BME280;33098;52.400;16.880;2023-02-26T09:10:37;100717.00;;;3.76;81.56
24336;BME280;33098;52.400;16.880;2023-02-26T09:13:04;100722.11;;;3.76;81.66
24336;BME280;33098;52.400;16.880;2023-02-26T09:15:31;100725.48;;;3.80;81.68
24336;BME280;33098;52.400;16.880;2023-02-26T09:17:58;100730.77;;;3.83;81.67
24336;BME280;33098;52.400;16.880;2023-02-26T09:20:26;100731.14;;;3.82;81.54
24336;BME280;33098;52.400;16.880;2023-02-26T09:22:53;100739.89;;;3.79;81.42
24336;BME280;33098;52.400;16.880;2023-02-26T09:25:21;100737.55;;;3.76;81.32
24336;BME280;33098;52.400;16.880;2023-02-26T09:27:51;100747.45;;;3.83;81.53
24336;BME280;33098;52.400;16.880;2023-02-26T09:30:21;100752.22;;;3.89;81.54
24336;BME280;33098;52.400;16.880;2023-02-26T09:32:51;100756.39;;;3.91;81.45
24336;BME280;33098;52.400;16.880;2023-02-26T09:35:19;100761.50;;;3.98;81.44
24336;BME280;33098;52.400;16.880;2023-02-26T09:37:49;100762.11;;;4.07;81.47
24336;BME280;33098;52.400;16.880;2023-02-26T09:40:25;100772.75;;;4.17;81.55
24336;BME280;33098;52.400;16.880;2023-02-26T09:45:35;100778.75;;;4.24;80.91
24336;BME280;33098;52.400;16.880;2023-02-26T09:48:05;100780.63;;;4.25;80.52
24336;BME280;33098;52.400;16.880;2023-02-26T09:50:50;100782.86;;;4.30;80.47
24336;BME280;33098;52.400;16.880;2023-02-26T09:53:23;100786.21;;;4.37;80.29
24336;BME280;33098;52.400;16.880;2023-02-26T09:56:06;100791.15;;;4.44;80.11
24336;BME280;33098;52.400;16.880;2023-02-26T09:58:39;100792.73;;;4.48;79.86
24336;BME280;33098;52.400;16.880;2023-02-26T10:06:29;100813.14;;;4.51;78.81
24336;BME280;33098;52.400;16.880;2023-02-26T10:09:12;100816.48;;;4.51;78.77
24336;BME280;33098;52.400;16.880;2023-02-26T10:14:39;100816.25;;;4.74;78.77
24336;BME280;33098;52.400;16.880;2023-02-26T10:17:25;100816.61;;;4.89;78.48
24336;BME280;33098;52.400;16.880;2023-02-26T10:20:05;100817.66;;;5.03;78.33
24336;BME280;33098;52.400;16.880;2023-02-26T10:25:46;100821.11;;;5.19;77.80
24336;BME280;33098;52.400;16.880;2023-02-26T10:28:34;100823.36;;;5.27;77.57
24336;BME280;33098;52.400;16.880;2023-02-26T10:31:14;100831.86;;;5.22;76.94
24336;BME280;33098;52.400;16.880;2023-02-26T10:42:27;100854.61;;;5.00;75.78
24336;BME280;33098;52.400;16.880;2023-02-26T10:50:20;100864.58;;;5.01;74.99
24336;BME280;33098;52.400;16.880;2023-02-26T10:52:49;100869.40;;;4.92;74.22
24336;BME280;33098;52.400;16.880;2023-02-26T10:55:38;100867.70;;;4.83;74.12
24336;BME280;33098;52.400;16.880;2023-02-26T10:58:21;100873.54;;;4.83;73.86
24336;BME280;33098;52.400;16.880;2023-02-26T11:00:52;100873.98;;;4.88;73.89
24336;BME280;33098;52.400;16.880;2023-02-26T11:03:36;100877.61;;;4.89;73.69
24336;BME280;33098;52.400;16.880;2023-02-26T11:06:05;100880.17;;;4.80;73.31
24336;BME280;33098;52.400;16.880;2023-02-26T11:08:38;100881.66;;;4.79;73.21
24336;BME280;33098;52.400;16.880;2023-02-26T11:11:07;100882.91;;;4.78;73.22
24336;BME280;33098;52.400;16.880;2023-02-26T11:13:36;100885.94;;;4.81;73.19
24336;BME280;33098;52.400;16.880;2023-02-26T11:16:12;100889.95;;;4.81;72.98
24336;BME280;33098;52.400;16.880;2023-02-26T11:18:47;100890.99;;;4.82;72.78
24336;BME280;33098;52.400;16.880;2023-02-26T11:21:35;100889.62;;;4.89;72.71
24336;BME280;33098;52.400;16.880;2023-02-26T11:24:09;100890.06;;;4.90;72.38
24336;BME280;33098;52.400;16.880;2023-02-26T11:26:42;100897.01;;;5.03;72.46
24336;BME280;33098;52.400;16.880;2023-02-26T11:29:19;100892.27;;;5.17;72.29
24336;BME280;33098;52.400;16.880;2023-02-26T11:31:50;100890.42;;;5.37;72.34
24336;BME280;33098;52.400;16.880;2023-02-26T11:34:25;100891.93;;;5.57;72.20
24336;BME280;33098;52.400;16.880;2023-02-26T11:36:56;100899.09;;;5.68;72.07
24336;BME280;33098;52.400;16.880;2023-02-26T11:39:32;100902.21;;;5.76;71.87
24336;BME280;33098;52.400;16.880;2023-02-26T11:42:04;100908.67;;;5.74;71.25
24336;BME280;33098;52.400;16.880;2023-02-26T11:47:08;100913.52;;;5.58;70.76
24336;BME280;33098;52.400;16.880;2023-02-26T11:49:49;100914.80;;;5.57;70.66
24336;BME280;33098;52.400;16.880;2023-02-26T11:52:26;100922.16;;;5.54;70.38
24336;BME280;33098;52.400;16.880;2023-02-26T11:55:14;100921.20;;;5.53;70.17
24336;BME280;33098;52.400;16.880;2023-02-26T11:57:51;100927.16;;;5.49;70.06
24336;BME280;33098;52.400;16.880;2023-02-26T12:00:28;100923.38;;;5.51;70.04
24336;BME280;33098;52.400;16.880;2023-02-26T12:03:10;100924.64;;;5.50;69.84
24336;BME280;33098;52.400;16.880;2023-02-26T12:05:41;100928.50;;;5.51;69.74
24336;BME280;33098;52.400;16.880;2023-02-26T12:19:33;100950.40;;;5.38;69.05
24336;BME280;33098;52.400;16.880;2023-02-26T12:24:45;100951.46;;;5.23;68.55
24336;BME280;33098;52.400;16.880;2023-02-26T12:36:07;100956.74;;;5.08;68.23
24336;BME280;33098;52.400;16.880;2023-02-26T12:50:02;100975.33;;;5.11;67.46
24336;BME280;33098;52.400;16.880;2023-02-26T12:53:06;100977.73;;;5.07;67.51
24336;BME280;33098;52.400;16.880;2023-02-26T13:06:54;100995.95;;;5.54;67.10
24336;BME280;33098;52.400;16.880;2023-02-26T13:20:51;100993.30;;;5.65;66.13
24336;BME280;33098;52.400;16.880;2023-02-26T13:23:37;101000.46;;;5.55;66.09
24336;BME280;33098;52.400;16.880;2023-02-26T13:26:09;101000.48;;;5.44;65.88
24336;BME280;33098;52.400;16.880;2023-02-26T13:28:48;101001.78;;;5.38;65.87
24336;BME280;33098;52.400;16.880;2023-02-26T13:31:41;101004.85;;;5.33;65.86
24336;BME280;33098;52.400;16.880;2023-02-26T13:34:14;101004.23;;;5.28;65.86
24336;BME280;33098;52.400;16.880;2023-02-26T13:36:44;101009.24;;;5.30;65.65
24336;BME280;33098;52.400;16.880;2023-02-26T13:39:41;101016.11;;;5.26;65.68
24336;BME280;33098;52.400;16.880;2023-02-26T13:42:31;101021.58;;;5.26;65.78
24336;BME280;33098;52.400;16.880;2023-02-26T13:48:08;101018.54;;;5.15;65.55
24336;BME280;33098;52.400;16.880;2023-02-26T13:50:50;101017.54;;;5.18;65.63
24336;BME280;33098;52.400;16.880;2023-02-26T13:53:47;101013.59;;;5.27;65.67
24336;BME280;33098;52.400;16.880;2023-02-26T13:59:24;101013.44;;;5.45;65.12
24336;BME280;33098;52.400;16.880;2023-02-26T14:01:59;101015.52;;;5.46;64.73
24336;BME280;33098;52.400;16.880;2023-02-26T14:04:30;101027.06;;;5.48;64.66
24336;BME280;33098;52.400;16.880;2023-02-26T14:14:30;101047.52;;;5.28;64.07
24336;BME280;33098;52.400;16.880;2023-02-26T14:19:41;101042.97;;;5.31;63.93
24336;BME280;33098;52.400;16.880;2023-02-26T14:22:33;101048.30;;;5.38;63.86
24336;BME280;33098;52.400;16.880;2023-02-26T14:28:28;101054.66;;;5.52;63.37
24336;BME280;33098;52.400;16.880;2023-02-26T14:31:08;101062.45;;;5.55;63.18
24336;BME280;33098;52.400;16.880;2023-02-26T14:36:31;101068.49;;;5.61;62.73
24336;BME280;33098;52.400;16.880;2023-02-26T14:39:04;101073.00;;;5.62;62.56
24336;BME280;33098;52.400;16.880;2023-02-26T14:41:42;101072.95;;;5.67;62.76
24336;BME280;33098;52.400;16.880;2023-02-26T14:44:14;101074.88;;;5.75;62.56
24336;BME280;33098;52.400;16.880;2023-02-26T14:46:44;101083.91;;;5.74;62.19
24336;BME280;33098;52.400;16.880;2023-02-26T14:49:32;101087.42;;;5.70;61.97
24336;BME280;33098;52.400;16.880;2023-02-26T14:52:14;101092.60;;;5.65;61.79
24336;BME280;33098;52.400;16.880;2023-02-26T15:00:39;101102.06;;;5.59;61.53
24336;BME280;33098;52.400;16.880;2023-02-26T15:11:35;101110.20;;;5.65;61.19
24336;BME280;33098;52.400;16.880;2023-02-26T15:17:11;101116.58;;;5.68;60.97
24336;BME280;33098;52.400;16.880;2023-02-26T15:20:03;101117.35;;;5.63;60.73
24336;BME280;33098;52.400;16.880;2023-02-26T15:22:50;101117.95;;;5.58;60.40
24336;BME280;33098;52.400;16.880;2023-02-26T15:25:32;101120.32;;;5.56;60.36
24336;BME280;33098;52.400;16.880;2023-02-26T15:28:06;101122.61;;;5.60;60.44
24336;BME280;33098;52.400;16.880;2023-02-26T15:30:37;101122.77;;;5.64;60.45
24336;BME280;33098;52.400;16.880;2023-02-26T15:33:12;101120.73;;;5.66;60.27
24336;BME280;33098;52.400;16.880;2023-02-26T15:35:42;101127.02;;;5.67;60.16
24336;BME280;33098;52.400;16.880;2023-02-26T15:38:10;101122.15;;;5.65;59.90
24336;BME280;33098;52.400;16.880;2023-02-26T15:40:37;101125.91;;;5.61;59.97
24336;BME280;33098;52.400;16.880;2023-02-26T15:43:07;101129.13;;;5.56;59.89
24336;BME280;33098;52.400;16.880;2023-02-26T15:45:43;101131.23;;;5.53;59.74
24336;BME280;33098;52.400;16.880;2023-02-26T15:48:17;101132.14;;;5.48;59.71
24336;BME280;33098;52.400;16.880;2023-02-26T15:50:48;101134.73;;;5.41;59.70
24336;BME280;33098;52.400;16.880;2023-02-26T15:53:28;101139.10;;;5.34;59.63
24336;BME280;33098;52.400;16.880;2023-02-26T15:55:58;101142.97;;;5.30;59.60
24336;BME280;33098;52.400;16.880;2023-02-26T15:58:43;101143.20;;;5.26;59.62
24336;BME280;33098;52.400;16.880;2023-02-26T16:01:20;101147.84;;;5.24;59.64
24336;BME280;33098;52.400;16.880;2023-02-26T16:04:06;101153.02;;;5.19;59.50
24336;BME280;33098;52.400;16.880;2023-02-26T16:06:40;101157.33;;;5.13;59.63
24336;BME280;33098;52.400;16.880;2023-02-26T16:09:18;101160.48;;;5.09;59.74
24336;BME280;33098;52.400;16.880;2023-02-26T16:11:49;101162.23;;;5.05;59.61
24336;BME280;33098;52.400;16.880;2023-02-26T16:14:27;101167.36;;;5.04;59.63
24336;BME280;33098;52.400;16.880;2023-02-26T16:17:00;101175.95;;;5.05;59.78
24336;BME280;33098;52.400;16.880;2023-02-26T16:19:42;101177.01;;;5.01;59.75